sensor_id;sensor_type;location;lat;lon;timestamp;P1;durP1;ratioP1;P2;durP2;ratioP2
9848;SDS011;4963;51.444;6.528;2023-04-10T00:00:19;13.87;;;10.43;;
9848;SDS011;4963;51.444;6.528;2023-04-10T00:02:46;15.27;;;10.97;;
9848;SDS011;4963;51.444;6.528;2023-04-10T00:05:13;11.87;;;10.10;;
9848;SDS011;4963;51.444;6.528;2023-04-10T00:07:41;13.63;;;10.83;;
9848;SDS011;4963;51.444;6.528;2023-04-10T00:10:08;15.23;;;10.27;;
9848;SDS011;4963;51.444;6.528;2023-04-10T00:12:35;12.07;;;9.83;;
9848;SDS011;4963;51.444;6.528;2023-04-10T00:15:02;14.13;;;10.40;;
9848;SDS011;4963;51.444;6.528;2023-04-10T00:17:29;13.73;;;10.70;;
9848;SDS011;4963;51.444;6.528;2023-04-10T00:19:56;13.20;;;9.53;;
9848;SDS011;4963;51.444;6.528;2023-04-10T00:22:24;12.70;;;9.83;;
9848;SDS011;4963;51.444;6.528;2023-04-10T00:24:52;12.70;;;10.00;;
9848;SDS011;4963;51.444;6.528;2023-04-10T00:27:19;12.93;;;10.30;;
9848;SDS011;4963;51.444;6.528;2023-04-10T00:29:46;12.50;;;9.40;;
9848;SDS011;4963;51.444;6.528;2023-04-10T00:32:13;10.70;;;9.00;;
9848;SDS011;4963;51.444;6.528;2023-04-10T00:34:39;12.03;;;9.90;;
9848;SDS011;4963;51.444;6.528;2023-04-10T00:37:06;13.20;;;10.00;;
9848;SDS011;4963;51.444;6.528;2023-04-10T00:39:33;12.07;;;9.10;;
9848;SDS011;4963;51.444;6.528;2023-04-10T00:42:01;12.40;;;9.83;;
9848;SDS011;4963;51.444;6.528;2023-04-10T00:44:30;12.60;;;9.90;;
9848;SDS011;4963;51.444;6.528;2023-04-10T00:47:01;11.47;;;9.13;;
9848;SDS011;4963;51.444;6.528;2023-04-10T00:49:28;11.63;;;9.13;;
9848;SDS011;4963;51.444;6.528;2023-04-10T00:51:55;11.17;;;9.83;;
9848;SDS011;4963;51.444;6.528;2023-04-10T00:54:22;11.30;;;9.23;;
9848;SDS011;4963;51.444;6.528;2023-04-10T00:56:49;12.13;;;8.83;;
9848;SDS011;4963;51.444;6.528;2023-04-10T00:59:17;10.10;;;8.30;;
9848;SDS011;4963;51.444;6.528;2023-04-10T01:01:44;12.20;;;9.30;;
9848;SDS011;4963;51.444;6.528;2023-04-10T01:04:11;10.63;;;9.13;;
9848;SDS011;4963;51.444;6.528;2023-04-10T01:06:44;11.53;;;8.70;;
9848;SDS011;4963;51.444;6.528;2023-04-10T01:09:19;11.60;;;9.33;;
9848;SDS011;4963;51.444;6.528;2023-04-10T01:11:59;10.30;;;8.70;;
9848;SDS011;4963;51.444;6.528;2023-04-10T01:14:37;12.57;;;8.23;;
9848;SDS011;4963;51.444;6.528;2023-04-10T01:17:12;10.93;;;9.40;;
9848;SDS011;4963;51.444;6.528;2023-04-10T01:20:00;9.67;;;8.47;;
9848;SDS011;4963;51.444;6.528;2023-04-10T01:22:33;10.93;;;9.23;;
9848;SDS011;4963;51.444;6.528;2023-04-10T01:25:06;13.57;;;10.00;;
9848;SDS011;4963;51.444;6.528;2023-04-10T01:27:45;12.33;;;9.63;;
9848;SDS011;4963;51.444;6.528;2023-04-10T01:30:24;14.30;;;10.20;;
9848;SDS011;4963;51.444;6.528;2023-04-10T01:32:53;15.07;;;10.53;;
9848;SDS011;4963;51.444;6.528;2023-04-10T01:35:24;12.53;;;9.73;;
9848;SDS011;4963;51.444;6.528;2023-04-10T01:37:53;14.17;;;10.93;;
9848;SDS011;4963;51.444;6.528;2023-04-10T01:40:21;11.97;;;9.90;;
9848;SDS011;4963;51.444;6.528;2023-04-10T01:42:52;13.53;;;10.80;;
9848;SDS011;4963;51.444;6.528;2023-04-10T01:45:22;15.30;;;11.70;;
9848;SDS011;4963;51.444;6.528;2023-04-10T01:47:52;14.77;;;11.50;;
9848;SDS011;4963;51.444;6.528;2023-04-10T01:50:20;14.17;;;10.50;;
9848;SDS011;4963;51.444;6.528;2023-04-10T01:52:49;13.10;;;10.83;;
9848;SDS011;4963;51.444;6.528;2023-04-10T01:55:17;12.93;;;10.27;;
9848;SDS011;4963;51.444;6.528;2023-04-10T01:57:45;15.00;;;11.67;;
9848;SDS011;4963;51.444;6.528;2023-04-10T02:00:13;11.60;;;9.60;;
9848;SDS011;4963;51.444;6.528;2023-04-10T02:02:41;12.97;;;10.17;;
9848;SDS011;4963;51.444;6.528;2023-04-10T02:05:09;13.73;;;10.37;;
9848;SDS011;4963;51.444;6.528;2023-04-10T02:07:38;11.70;;;9.70;;
9848;SDS011;4963;51.444;6.528;2023-04-10T02:10:11;11.83;;;9.40;;
9848;SDS011;4963;51.444;6.528;2023-04-10T02:12:43;10.90;;;8.70;;
9848;SDS011;4963;51.444;6.528;2023-04-10T02:15:15;9.97;;;8.93;;
9848;SDS011;4963;51.444;6.528;2023-04-10T02:17:45;10.67;;;9.10;;
9848;SDS011;4963;51.444;6.528;2023-04-10T02:20:13;11.50;;;9.70;;
9848;SDS011;4963;51.444;6.528;2023-04-10T02:22:42;11.77;;;9.90;;
9848;SDS011;4963;51.444;6.528;2023-04-10T02:25:10;11.17;;;9.13;;
9848;SDS011;4963;51.444;6.528;2023-04-10T02:27:37;11.87;;;10.20;;
9848;SDS011;4963;51.444;6.528;2023-04-10T02:30:05;11.80;;;9.37;;
9848;SDS011;4963;51.444;6.528;2023-04-10T02:32:33;13.20;;;9.93;;
9848;SDS011;4963;51.444;6.528;2023-04-10T02:35:02;10.37;;;9.27;;
9848;SDS011;4963;51.444;6.528;2023-04-10T02:37:29;11.50;;;10.17;;
9848;SDS011;4963;51.444;6.528;2023-04-10T02:39:56;14.20;;;10.00;;
9848;SDS011;4963;51.444;6.528;2023-04-10T02:42:23;13.10;;;10.43;;
9848;SDS011;4963;51.444;6.528;2023-04-10T02:44:50;11.40;;;9.60;;
9848;SDS011;4963;51.444;6.528;2023-04-10T02:47:17;13.87;;;10.20;;
9848;SDS011;4963;51.444;6.528;2023-04-10T02:49:43;11.70;;;9.97;;
9848;SDS011;4963;51.444;6.528;2023-04-10T02:52:12;12.20;;;9.73;;
9848;SDS011;4963;51.444;6.528;2023-04-10T02:54:38;13.30;;;9.87;;
9848;SDS011;4963;51.444;6.528;2023-04-10T02:57:05;11.70;;;9.20;;
9848;SDS011;4963;51.444;6.528;2023-04-10T02:59:32;13.80;;;10.73;;
9848;SDS011;4963;51.444;6.528;2023-04-10T03:01:59;10.77;;;9.60;;
9848;SDS011;4963;51.444;6.528;2023-04-10T03:04:26;18.80;;;11.20;;
9848;SDS011;4963;51.444;6.528;2023-04-10T03:06:53;13.17;;;10.87;;
9848;SDS011;4963;51.444;6.528;2023-04-10T03:09:21;13.13;;;10.20;;
9848;SDS011;4963;51.444;6.528;2023-04-10T03:11:47;13.10;;;10.47;;
9848;SDS011;4963;51.444;6.528;2023-04-10T03:14:14;12.40;;;10.43;;
9848;SDS011;4963;51.444;6.528;2023-04-10T03:16:42;11.90;;;10.50;;
9848;SDS011;4963;51.444;6.528;2023-04-10T03:19:08;12.67;;;10.50;;
9848;SDS011;4963;51.444;6.528;2023-04-10T03:21:36;11.97;;;10.23;;
9848;SDS011;4963;51.444;6.528;2023-04-10T03:24:03;12.63;;;9.50;;
9848;SDS011;4963;51.444;6.528;2023-04-10T03:26:32;12.67;;;10.13;;
9848;SDS011;4963;51.444;6.528;2023-04-10T03:28:59;12.73;;;10.33;;
9848;SDS011;4963;51.444;6.528;2023-04-10T03:31:26;12.87;;;10.27;;
9848;SDS011;4963;51.444;6.528;2023-04-10T03:33:53;12.53;;;10.63;;
9848;SDS011;4963;51.444;6.528;2023-04-10T03:36:20;13.70;;;9.93;;
9848;SDS011;4963;51.444;6.528;2023-04-10T03:38:46;14.20;;;10.13;;
9848;SDS011;4963;51.444;6.528;2023-04-10T03:41:13;12.10;;;10.40;;
9848;SDS011;4963;51.444;6.528;2023-04-10T03:43:41;11.70;;;9.70;;
9848;SDS011;4963;51.444;6.528;2023-04-10T03:46:08;12.57;;;10.40;;
9848;SDS011;4963;51.444;6.528;2023-04-10T03:48:35;13.33;;;10.30;;
9848;SDS011;4963;51.444;6.528;2023-04-10T03:51:02;11.90;;;9.67;;
9848;SDS011;4963;51.444;6.528;2023-04-10T03:53:29;12.50;;;9.37;;
9848;SDS011;4963;51.444;6.528;2023-04-10T03:55:59;12.17;;;9.97;;
9848;SDS011;4963;51.444;6.528;2023-04-10T03:58:27;10.60;;;9.17;;
9848;SDS011;4963;51.444;6.528;2023-04-10T04:00:55;14.27;;;9.90;;
9848;SDS011;4963;51.444;6.528;2023-04-10T04:03:22;13.60;;;10.67;;
9848;SDS011;4963;51.444;6.528;2023-04-10T04:05:49;10.60;;;8.90;;
9848;SDS011;4963;51.444;6.528;2023-04-10T04:08:16;13.30;;;10.33;;
9848;SDS011;4963;51.444;6.528;2023-04-10T04:10:43;15.43;;;10.43;;
9848;SDS011;4963;51.444;6.528;2023-04-10T04:13:09;14.47;;;9.93;;
9848;SDS011;4963;51.444;6.528;2023-04-10T04:15:36;11.10;;;9.23;;
9848;SDS011;4963;51.444;6.528;2023-04-10T04:18:04;12.33;;;9.83;;
9848;SDS011;4963;51.444;6.528;2023-04-10T04:20:31;13.97;;;10.50;;
9848;SDS011;4963;51.444;6.528;2023-04-10T04:22:58;12.53;;;10.27;;
9848;SDS011;4963;51.444;6.528;2023-04-10T04:25:25;12.60;;;9.40;;
9848;SDS011;4963;51.444;6.528;2023-04-10T04:27:51;13.00;;;9.73;;
9848;SDS011;4963;51.444;6.528;2023-04-10T04:30:18;11.80;;;9.40;;
9848;SDS011;4963;51.444;6.528;2023-04-10T04:32:45;11.13;;;9.03;;
9848;SDS011;4963;51.444;6.528;2023-04-10T04:35:13;11.03;;;8.83;;
9848;SDS011;4963;51.444;6.528;2023-04-10T04:37:40;11.43;;;9.27;;
9848;SDS011;4963;51.444;6.528;2023-04-10T04:40:07;12.40;;;9.23;;
9848;SDS011;4963;51.444;6.528;2023-04-10T04:42:34;12.37;;;10.20;;
9848;SDS011;4963;51.444;6.528;2023-04-10T04:45:01;11.37;;;8.80;;
9848;SDS011;4963;51.444;6.528;2023-04-10T04:47:28;11.63;;;9.43;;
9848;SDS011;4963;51.444;6.528;2023-04-10T04:49:55;12.93;;;9.10;;
9848;SDS011;4963;51.444;6.528;2023-04-10T04:52:23;11.03;;;8.73;;
9848;SDS011;4963;51.444;6.528;2023-04-10T04:54:51;12.63;;;9.47;;
9848;SDS011;4963;51.444;6.528;2023-04-10T04:57:18;12.43;;;8.90;;
9848;SDS011;4963;51.444;6.528;2023-04-10T04:59:45;11.10;;;8.67;;
9848;SDS011;4963;51.444;6.528;2023-04-10T05:02:11;12.13;;;9.73;;
9848;SDS011;4963;51.444;6.528;2023-04-10T05:04:38;12.23;;;9.30;;
9848;SDS011;4963;51.444;6.528;2023-04-10T05:07:05;10.13;;;8.63;;
9848;SDS011;4963;51.444;6.528;2023-04-10T05:09:33;12.47;;;9.43;;
9848;SDS011;4963;51.444;6.528;2023-04-10T05:12:00;11.20;;;9.53;;
9848;SDS011;4963;51.444;6.528;2023-04-10T05:14:27;12.97;;;9.57;;
9848;SDS011;4963;51.444;6.528;2023-04-10T05:16:54;13.63;;;10.70;;
9848;SDS011;4963;51.444;6.528;2023-04-10T05:19:21;12.00;;;9.40;;
9848;SDS011;4963;51.444;6.528;2023-04-10T05:21:48;12.40;;;9.50;;
9848;SDS011;4963;51.444;6.528;2023-04-10T05:24:15;10.27;;;8.37;;
9848;SDS011;4963;51.444;6.528;2023-04-10T05:26:43;11.30;;;8.40;;
9848;SDS011;4963;51.444;6.528;2023-04-10T05:29:10;11.33;;;8.27;;
9848;SDS011;4963;51.444;6.528;2023-04-10T05:31:37;12.20;;;9.47;;
9848;SDS011;4963;51.444;6.528;2023-04-10T05:34:03;10.63;;;8.97;;
9848;SDS011;4963;51.444;6.528;2023-04-10T05:36:30;11.30;;;9.07;;
9848;SDS011;4963;51.444;6.528;2023-04-10T05:38:57;11.50;;;8.73;;
9848;SDS011;4963;51.444;6.528;2023-04-10T05:41:24;12.37;;;9.07;;
9848;SDS011;4963;51.444;6.528;2023-04-10T05:43:52;11.13;;;8.27;;
9848;SDS011;4963;51.444;6.528;2023-04-10T05:46:19;11.17;;;8.23;;
9848;SDS011;4963;51.444;6.528;2023-04-10T05:48:46;10.40;;;8.13;;
9848;SDS011;4963;51.444;6.528;2023-04-10T05:51:12;10.53;;;8.53;;
9848;SDS011;4963;51.444;6.528;2023-04-10T05:53:39;9.77;;;7.93;;
9848;SDS011;4963;51.444;6.528;2023-04-10T05:56:06;10.47;;;8.17;;
9848;SDS011;4963;51.444;6.528;2023-04-10T05:58:33;9.67;;;8.40;;
9848;SDS011;4963;51.444;6.528;2023-04-10T06:01:02;11.53;;;8.27;;
9848;SDS011;4963;51.444;6.528;2023-04-10T06:03:29;10.77;;;9.10;;
9848;SDS011;4963;51.444;6.528;2023-04-10T06:05:56;10.00;;;7.90;;
9848;SDS011;4963;51.444;6.528;2023-04-10T06:08:23;10.67;;;7.93;;
9848;SDS011;4963;51.444;6.528;2023-04-10T06:10:50;8.90;;;7.63;;
9848;SDS011;4963;51.444;6.528;2023-04-10T06:13:16;10.63;;;7.87;;
9848;SDS011;4963;51.444;6.528;2023-04-10T06:15:43;11.03;;;8.03;;
9848;SDS011;4963;51.444;6.528;2023-04-10T06:18:11;10.53;;;8.53;;
9848;SDS011;4963;51.444;6.528;2023-04-10T06:20:38;9.70;;;8.63;;
9848;SDS011;4963;51.444;6.528;2023-04-10T06:23:05;10.60;;;8.37;;
9848;SDS011;4963;51.444;6.528;2023-04-10T06:25:32;10.53;;;8.37;;
9848;SDS011;4963;51.444;6.528;2023-04-10T06:27:59;9.37;;;8.00;;
9848;SDS011;4963;51.444;6.528;2023-04-10T06:30:25;9.30;;;8.20;;
9848;SDS011;4963;51.444;6.528;2023-04-10T06:32:52;9.47;;;8.17;;
9848;SDS011;4963;51.444;6.528;2023-04-10T06:35:20;10.90;;;8.70;;
9848;SDS011;4963;51.444;6.528;2023-04-10T06:37:47;11.20;;;8.83;;
9848;SDS011;4963;51.444;6.528;2023-04-10T06:40:14;10.20;;;8.67;;
9848;SDS011;4963;51.444;6.528;2023-04-10T06:42:41;10.00;;;8.53;;
9848;SDS011;4963;51.444;6.528;2023-04-10T06:45:08;9.30;;;8.00;;
9848;SDS011;4963;51.444;6.528;2023-04-10T06:47:35;9.27;;;7.93;;
9848;SDS011;4963;51.444;6.528;2023-04-10T06:50:02;8.83;;;7.93;;
9848;SDS011;4963;51.444;6.528;2023-04-10T06:52:31;10.47;;;8.70;;
9848;SDS011;4963;51.444;6.528;2023-04-10T06:54:58;9.47;;;7.53;;
9848;SDS011;4963;51.444;6.528;2023-04-10T06:57:26;10.20;;;7.97;;
9848;SDS011;4963;51.444;6.528;2023-04-10T06:59:53;12.27;;;8.37;;
9848;SDS011;4963;51.444;6.528;2023-04-10T07:02:20;9.70;;;8.13;;
9848;SDS011;4963;51.444;6.528;2023-04-10T07:04:48;8.43;;;7.53;;
9848;SDS011;4963;51.444;6.528;2023-04-10T07:07:15;9.73;;;8.10;;
9848;SDS011;4963;51.444;6.528;2023-04-10T07:09:44;9.83;;;8.33;;
9848;SDS011;4963;51.444;6.528;2023-04-10T07:12:11;10.63;;;8.37;;
9848;SDS011;4963;51.444;6.528;2023-04-10T07:14:38;9.70;;;8.13;;
9848;SDS011;4963;51.444;6.528;2023-04-10T07:17:05;9.20;;;8.07;;
9848;SDS011;4963;51.444;6.528;2023-04-10T07:19:32;9.40;;;8.10;;
9848;SDS011;4963;51.444;6.528;2023-04-10T07:21:58;11.07;;;9.40;;
9848;SDS011;4963;51.444;6.528;2023-04-10T07:24:25;10.47;;;8.10;;
9848;SDS011;4963;51.444;6.528;2023-04-10T07:26:54;10.23;;;8.70;;
9848;SDS011;4963;51.444;6.528;2023-04-10T07:29:21;10.27;;;7.60;;
9848;SDS011;4963;51.444;6.528;2023-04-10T07:31:48;10.63;;;8.70;;
9848;SDS011;4963;51.444;6.528;2023-04-10T07:34:15;9.27;;;7.63;;
9848;SDS011;4963;51.444;6.528;2023-04-10T07:36:41;8.90;;;8.00;;
9848;SDS011;4963;51.444;6.528;2023-04-10T07:39:08;9.67;;;8.20;;
9848;SDS011;4963;51.444;6.528;2023-04-10T07:41:35;9.10;;;7.90;;
9848;SDS011;4963;51.444;6.528;2023-04-10T07:44:03;8.87;;;7.67;;
9848;SDS011;4963;51.444;6.528;2023-04-10T07:46:30;14.33;;;7.57;;
9848;SDS011;4963;51.444;6.528;2023-04-10T07:48:57;10.07;;;7.20;;
9848;SDS011;4963;51.444;6.528;2023-04-10T07:51:24;9.60;;;7.93;;
9848;SDS011;4963;51.444;6.528;2023-04-10T07:53:51;8.23;;;6.90;;
9848;SDS011;4963;51.444;6.528;2023-04-10T07:56:18;8.73;;;7.33;;
9848;SDS011;4963;51.444;6.528;2023-04-10T07:58:46;10.00;;;7.53;;
9848;SDS011;4963;51.444;6.528;2023-04-10T08:01:14;8.60;;;7.70;;
9848;SDS011;4963;51.444;6.528;2023-04-10T08:03:41;7.90;;;7.10;;
9848;SDS011;4963;51.444;6.528;2023-04-10T08:06:10;7.53;;;6.73;;
9848;SDS011;4963;51.444;6.528;2023-04-10T08:08:37;7.67;;;6.87;;
9848;SDS011;4963;51.444;6.528;2023-04-10T08:11:06;7.63;;;6.63;;
9848;SDS011;4963;51.444;6.528;2023-04-10T08:13:33;8.23;;;6.93;;
9848;SDS011;4963;51.444;6.528;2023-04-10T08:16:00;7.73;;;6.80;;
9848;SDS011;4963;51.444;6.528;2023-04-10T08:18:28;7.23;;;6.30;;
9848;SDS011;4963;51.444;6.528;2023-04-10T08:20:55;7.30;;;6.50;;
9848;SDS011;4963;51.444;6.528;2023-04-10T08:23:21;7.77;;;6.37;;
9848;SDS011;4963;51.444;6.528;2023-04-10T08:25:48;7.00;;;6.07;;
9848;SDS011;4963;51.444;6.528;2023-04-10T08:28:15;6.93;;;6.20;;
9848;SDS011;4963;51.444;6.528;2023-04-10T08:30:43;7.33;;;5.97;;
9848;SDS011;4963;51.444;6.528;2023-04-10T08:33:10;7.63;;;6.77;;
9848;SDS011;4963;51.444;6.528;2023-04-10T08:35:38;7.50;;;6.70;;
9848;SDS011;4963;51.444;6.528;2023-04-10T08:38:05;6.47;;;5.77;;
9848;SDS011;4963;51.444;6.528;2023-04-10T08:40:35;7.13;;;6.33;;
9848;SDS011;4963;51.444;6.528;2023-04-10T08:43:02;8.57;;;7.30;;
9848;SDS011;4963;51.444;6.528;2023-04-10T08:45:30;8.30;;;6.10;;
9848;SDS011;4963;51.444;6.528;2023-04-10T08:47:56;6.73;;;5.87;;
9848;SDS011;4963;51.444;6.528;2023-04-10T08:50:27;6.37;;;5.77;;
9848;SDS011;4963;51.444;6.528;2023-04-10T08:53:01;8.00;;;6.00;;
9848;SDS011;4963;51.444;6.528;2023-04-10T08:55:33;7.70;;;6.37;;
9848;SDS011;4963;51.444;6.528;2023-04-10T08:58:00;7.13;;;6.33;;
9848;SDS011;4963;51.444;6.528;2023-04-10T09:00:27;8.20;;;5.60;;
9848;SDS011;4963;51.444;6.528;2023-04-10T09:02:55;6.70;;;5.77;;
9848;SDS011;4963;51.444;6.528;2023-04-10T09:05:24;6.90;;;5.77;;
9848;SDS011;4963;51.444;6.528;2023-04-10T09:07:53;7.23;;;5.57;;
9848;SDS011;4963;51.444;6.528;2023-04-10T09:10:21;6.23;;;5.53;;
9848;SDS011;4963;51.444;6.528;2023-04-10T09:12:48;6.37;;;5.57;;
9848;SDS011;4963;51.444;6.528;2023-04-10T09:15:15;6.00;;;5.33;;
9848;SDS011;4963;51.444;6.528;2023-04-10T09:17:55;6.43;;;5.73;;
9848;SDS011;4963;51.444;6.528;2023-04-10T09:20:23;6.70;;;5.67;;
9848;SDS011;4963;51.444;6.528;2023-04-10T09:22:52;6.60;;;5.60;;
9848;SDS011;4963;51.444;6.528;2023-04-10T09:25:32;6.27;;;5.50;;
9848;SDS011;4963;51.444;6.528;2023-04-10T09:28:03;7.80;;;5.30;;
9848;SDS011;4963;51.444;6.528;2023-04-10T09:30:31;7.00;;;4.73;;
9848;SDS011;4963;51.444;6.528;2023-04-10T09:33:00;6.00;;;5.40;;
9848;SDS011;4963;51.444;6.528;2023-04-10T09:35:34;6.10;;;5.50;;
9848;SDS011;4963;51.444;6.528;2023-04-10T09:38:12;6.20;;;4.93;;
9848;SDS011;4963;51.444;6.528;2023-04-10T09:40:42;7.33;;;4.70;;
9848;SDS011;4963;51.444;6.528;2023-04-10T09:43:16;6.63;;;5.17;;
9848;SDS011;4963;51.444;6.528;2023-04-10T09:45:48;6.40;;;5.37;;
9848;SDS011;4963;51.444;6.528;2023-04-10T09:48:16;8.70;;;5.20;;
9848;SDS011;4963;51.444;6.528;2023-04-10T09:50:43;5.83;;;5.13;;
9848;SDS011;4963;51.444;6.528;2023-04-10T09:53:10;5.67;;;5.07;;
9848;SDS011;4963;51.444;6.528;2023-04-10T09:55:39;7.87;;;5.13;;
9848;SDS011;4963;51.444;6.528;2023-04-10T09:58:08;5.50;;;4.90;;
9848;SDS011;4963;51.444;6.528;2023-04-10T10:00:38;6.30;;;5.30;;
9848;SDS011;4963;51.444;6.528;2023-04-10T10:03:08;6.50;;;4.63;;
9848;SDS011;4963;51.444;6.528;2023-04-10T10:05:37;5.47;;;4.97;;
9848;SDS011;4963;51.444;6.528;2023-04-10T10:08:06;5.20;;;4.70;;
9848;SDS011;4963;51.444;6.528;2023-04-10T10:10:35;7.03;;;4.97;;
9848;SDS011;4963;51.444;6.528;2023-04-10T10:13:05;5.90;;;4.77;;
9848;SDS011;4963;51.444;6.528;2023-04-10T10:15:37;5.90;;;5.20;;
9848;SDS011;4963;51.444;6.528;2023-04-10T10:18:12;6.17;;;5.47;;
9848;SDS011;4963;51.444;6.528;2023-04-10T10:20:47;7.33;;;5.50;;
9848;SDS011;4963;51.444;6.528;2023-04-10T10:23:15;5.80;;;4.70;;
9848;SDS011;4963;51.444;6.528;2023-04-10T10:25:44;6.07;;;5.27;;
9848;SDS011;4963;51.444;6.528;2023-04-10T10:28:13;5.90;;;5.23;;
9848;SDS011;4963;51.444;6.528;2023-04-10T10:30:40;7.00;;;6.23;;
9848;SDS011;4963;51.444;6.528;2023-04-10T10:33:08;5.87;;;5.23;;
9848;SDS011;4963;51.444;6.528;2023-04-10T10:35:37;5.73;;;5.00;;
9848;SDS011;4963;51.444;6.528;2023-04-10T10:38:05;5.30;;;4.80;;
9848;SDS011;4963;51.444;6.528;2023-04-10T10:40:35;5.93;;;4.60;;
9848;SDS011;4963;51.444;6.528;2023-04-10T10:43:09;5.73;;;4.50;;
9848;SDS011;4963;51.444;6.528;2023-04-10T10:45:45;4.67;;;4.17;;
9848;SDS011;4963;51.444;6.528;2023-04-10T10:48:17;5.33;;;4.40;;
9848;SDS011;4963;51.444;6.528;2023-04-10T10:50:53;5.87;;;4.07;;
9848;SDS011;4963;51.444;6.528;2023-04-10T10:53:35;7.03;;;5.30;;
9848;SDS011;4963;51.444;6.528;2023-04-10T10:58:59;7.27;;;4.50;;
9848;SDS011;4963;51.444;6.528;2023-04-10T11:01:27;5.27;;;4.77;;
9848;SDS011;4963;51.444;6.528;2023-04-10T11:03:54;5.30;;;4.40;;
9848;SDS011;4963;51.444;6.528;2023-04-10T11:06:47;4.87;;;4.07;;
9848;SDS011;4963;51.444;6.528;2023-04-10T11:12:09;8.57;;;4.47;;
9848;SDS011;4963;51.444;6.528;2023-04-10T11:14:36;4.83;;;4.33;;
9848;SDS011;4963;51.444;6.528;2023-04-10T11:17:04;5.67;;;4.80;;
9848;SDS011;4963;51.444;6.528;2023-04-10T11:19:36;5.10;;;3.77;;
9848;SDS011;4963;51.444;6.528;2023-04-10T11:22:25;9.03;;;4.07;;
9848;SDS011;4963;51.444;6.528;2023-04-10T11:24:56;5.13;;;4.00;;
9848;SDS011;4963;51.444;6.528;2023-04-10T11:27:37;5.27;;;4.03;;
9848;SDS011;4963;51.444;6.528;2023-04-10T11:30:25;6.23;;;4.40;;
9848;SDS011;4963;51.444;6.528;2023-04-10T11:32:54;5.87;;;4.43;;
9848;SDS011;4963;51.444;6.528;2023-04-10T11:35:21;5.47;;;4.67;;
9848;SDS011;4963;51.444;6.528;2023-04-10T11:37:49;5.53;;;4.13;;
9848;SDS011;4963;51.444;6.528;2023-04-10T11:40:17;4.40;;;3.47;;
9848;SDS011;4963;51.444;6.528;2023-04-10T11:42:43;5.30;;;4.17;;
9848;SDS011;4963;51.444;6.528;2023-04-10T11:45:21;4.63;;;4.03;;
9848;SDS011;4963;51.444;6.528;2023-04-10T11:47:50;5.37;;;4.10;;
9848;SDS011;4963;51.444;6.528;2023-04-10T11:50:17;4.43;;;4.03;;
9848;SDS011;4963;51.444;6.528;2023-04-10T11:52:45;4.33;;;3.93;;
9848;SDS011;4963;51.444;6.528;2023-04-10T11:55:13;6.10;;;3.93;;
9848;SDS011;4963;51.444;6.528;2023-04-10T11:57:40;4.97;;;4.20;;
9848;SDS011;4963;51.444;6.528;2023-04-10T12:00:08;4.53;;;3.93;;
9848;SDS011;4963;51.444;6.528;2023-04-10T12:02:48;4.67;;;3.80;;
9848;SDS011;4963;51.444;6.528;2023-04-10T12:05:16;4.50;;;4.10;;
9848;SDS011;4963;51.444;6.528;2023-04-10T12:07:43;4.50;;;4.10;;
9848;SDS011;4963;51.444;6.528;2023-04-10T12:10:09;4.00;;;3.60;;
9848;SDS011;4963;51.444;6.528;2023-04-10T12:12:38;4.30;;;3.88;;
9848;SDS011;4963;51.444;6.528;2023-04-10T12:17:50;5.00;;;4.50;;
9848;SDS011;4963;51.444;6.528;2023-04-10T12:20:17;4.45;;;4.00;;
9848;SDS011;4963;51.444;6.528;2023-04-10T12:22:45;4.75;;;4.25;;
9848;SDS011;4963;51.444;6.528;2023-04-10T12:25:12;4.60;;;3.60;;
9848;SDS011;4963;51.444;6.528;2023-04-10T12:27:46;4.43;;;3.97;;
9848;SDS011;4963;51.444;6.528;2023-04-10T12:30:14;4.72;;;3.90;;
9848;SDS011;4963;51.444;6.528;2023-04-10T12:32:42;4.67;;;4.03;;
9848;SDS011;4963;51.444;6.528;2023-04-10T12:35:16;4.32;;;3.70;;
9848;SDS011;4963;51.444;6.528;2023-04-10T12:37:46;4.00;;;3.60;;
9848;SDS011;4963;51.444;6.528;2023-04-10T12:40:14;4.10;;;3.70;;
9848;SDS011;4963;51.444;6.528;2023-04-10T12:42:42;3.83;;;3.35;;
9848;SDS011;4963;51.444;6.528;2023-04-10T12:45:09;5.40;;;3.75;;
9848;SDS011;4963;51.444;6.528;2023-04-10T12:47:42;4.60;;;3.85;;
9848;SDS011;4963;51.444;6.528;2023-04-10T12:50:11;4.75;;;3.90;;
9848;SDS011;4963;51.444;6.528;2023-04-10T12:52:40;3.80;;;3.42;;
9848;SDS011;4963;51.444;6.528;2023-04-10T12:55:08;3.50;;;3.20;;
9848;SDS011;4963;51.444;6.528;2023-04-10T12:57:36;3.58;;;3.28;;
9848;SDS011;4963;51.444;6.528;2023-04-10T13:00:05;4.15;;;3.60;;
9848;SDS011;4963;51.444;6.528;2023-04-10T13:02:33;3.85;;;3.45;;
9848;SDS011;4963;51.444;6.528;2023-04-10T13:05:03;3.67;;;3.10;;
9848;SDS011;4963;51.444;6.528;2023-04-10T13:07:30;5.22;;;3.42;;
9848;SDS011;4963;51.444;6.528;2023-04-10T13:09:57;4.32;;;3.50;;
9848;SDS011;4963;51.444;6.528;2023-04-10T13:12:24;3.40;;;3.10;;
9848;SDS011;4963;51.444;6.528;2023-04-10T13:14:53;4.03;;;3.42;;
9848;SDS011;4963;51.444;6.528;2023-04-10T13:17:21;4.27;;;3.63;;
9848;SDS011;4963;51.444;6.528;2023-04-10T13:19:49;4.75;;;3.67;;
9848;SDS011;4963;51.444;6.528;2023-04-10T13:22:16;3.85;;;3.17;;
9848;SDS011;4963;51.444;6.528;2023-04-10T13:24:43;4.28;;;3.25;;
9848;SDS011;4963;51.444;6.528;2023-04-10T13:27:10;3.80;;;3.03;;
9848;SDS011;4963;51.444;6.528;2023-04-10T13:29:37;3.72;;;3.08;;
9848;SDS011;4963;51.444;6.528;2023-04-10T13:32:05;3.47;;;3.17;;
9848;SDS011;4963;51.444;6.528;2023-04-10T13:34:34;4.25;;;2.75;;
9848;SDS011;4963;51.444;6.528;2023-04-10T13:37:01;4.70;;;3.78;;
9848;SDS011;4963;51.444;6.528;2023-04-10T13:39:28;5.22;;;3.05;;
9848;SDS011;4963;51.444;6.528;2023-04-10T13:41:56;3.22;;;2.65;;
9848;SDS011;4963;51.444;6.528;2023-04-10T13:44:23;4.25;;;3.15;;
9848;SDS011;4963;51.444;6.528;2023-04-10T13:46:50;4.88;;;3.10;;
9848;SDS011;4963;51.444;6.528;2023-04-10T13:49:17;3.72;;;2.67;;
9848;SDS011;4963;51.444;6.528;2023-04-10T13:51:45;4.85;;;2.92;;
9848;SDS011;4963;51.444;6.528;2023-04-10T13:54:12;5.20;;;2.42;;
9848;SDS011;4963;51.444;6.528;2023-04-10T13:56:41;2.80;;;2.50;;
9848;SDS011;4963;51.444;6.528;2023-04-10T13:59:08;3.53;;;2.60;;
9848;SDS011;4963;51.444;6.528;2023-04-10T14:01:35;2.92;;;2.50;;
9848;SDS011;4963;51.444;6.528;2023-04-10T14:04:01;4.68;;;2.60;;
9848;SDS011;4963;51.444;6.528;2023-04-10T14:06:28;3.10;;;2.40;;
9848;SDS011;4963;51.444;6.528;2023-04-10T14:08:57;2.92;;;2.20;;
9848;SDS011;4963;51.444;6.528;2023-04-10T14:11:24;4.60;;;2.22;;
9848;SDS011;4963;51.444;6.528;2023-04-10T14:13:50;2.65;;;2.40;;
9848;SDS011;4963;51.444;6.528;2023-04-10T14:16:17;2.65;;;2.33;;
9848;SDS011;4963;51.444;6.528;2023-04-10T14:18:44;3.60;;;2.80;;
9848;SDS011;4963;51.444;6.528;2023-04-10T14:21:11;3.20;;;2.60;;
9848;SDS011;4963;51.444;6.528;2023-04-10T14:23:39;3.10;;;2.20;;
9848;SDS011;4963;51.444;6.528;2023-04-10T14:26:07;4.32;;;2.75;;
9848;SDS011;4963;51.444;6.528;2023-04-10T14:28:34;3.28;;;2.60;;
9848;SDS011;4963;51.444;6.528;2023-04-10T14:31:01;3.25;;;2.65;;
9848;SDS011;4963;51.444;6.528;2023-04-10T14:33:30;5.85;;;2.90;;
9848;SDS011;4963;51.444;6.528;2023-04-10T14:35:57;4.20;;;3.13;;
9848;SDS011;4963;51.444;6.528;2023-04-10T14:38:23;3.22;;;2.92;;
9848;SDS011;4963;51.444;6.528;2023-04-10T14:40:50;4.15;;;2.88;;
9848;SDS011;4963;51.444;6.528;2023-04-10T14:43:19;3.22;;;2.83;;
9848;SDS011;4963;51.444;6.528;2023-04-10T14:45:46;4.03;;;3.60;;
9848;SDS011;4963;51.444;6.528;2023-04-10T14:48:14;5.30;;;3.13;;
9848;SDS011;4963;51.444;6.528;2023-04-10T14:50:43;4.20;;;3.60;;
9848;SDS011;4963;51.444;6.528;2023-04-10T14:53:11;3.35;;;3.05;;
9848;SDS011;4963;51.444;6.528;2023-04-10T14:55:37;3.08;;;2.78;;
9848;SDS011;4963;51.444;6.528;2023-04-10T14:58:04;3.13;;;2.70;;
9848;SDS011;4963;51.444;6.528;2023-04-10T15:00:34;3.88;;;3.13;;
9848;SDS011;4963;51.444;6.528;2023-04-10T15:03:01;3.60;;;2.67;;
9848;SDS011;4963;51.444;6.528;2023-04-10T15:05:29;3.38;;;3.08;;
9848;SDS011;4963;51.444;6.528;2023-04-10T15:07:56;3.45;;;2.95;;
9848;SDS011;4963;51.444;6.528;2023-04-10T15:10:22;3.95;;;2.90;;
9848;SDS011;4963;51.444;6.528;2023-04-10T15:12:49;6.00;;;5.40;;
9848;SDS011;4963;51.444;6.528;2023-04-10T15:15:16;3.67;;;2.80;;
9848;SDS011;4963;51.444;6.528;2023-04-10T15:17:45;3.10;;;2.80;;
9848;SDS011;4963;51.444;6.528;2023-04-10T15:20:12;3.20;;;2.72;;
9848;SDS011;4963;51.444;6.528;2023-04-10T15:22:39;3.15;;;2.85;;